Time;durP1;ratioP1;P1;durP2;ratioP2;P2;SDS_P1;SDS_P2;PMS_P1;PMS_P2;Temp;Humidity;BMP_temperature;BMP_pressure;BME280_temperature;BME280_humidity;BME280_pressure;Samples;Min_cycle;Max_cycle;Signal;HPM_P1;HPM_P2
2021/07/12 00:01:18;;;;;;;;;;;16.30;99.90;;;;;;5030630;28;20466;-78
2021/07/12 00:03:43;;;;;;;;;;;16.30;99.90;;;;;;5023920;28;19994;-77
2021/07/12 00:06:09;;;;;;;;;;;16.40;99.90;;;;;;5027090;28;19913;-82
2021/07/12 00:08:34;;;;;;;;;;;16.40;99.90;;;;;;5033899;28;20004;-76
2021/07/12 00:11:00;;;;;;;;;;;16.40;99.90;;;;;;5033449;28;20312;-76
2021/07/12 00:13:26;;;;;;;;;;;16.40;99.90;;;;;;5018244;28;19964;-77
2021/07/12 00:15:51;;;;;;;;;;;16.40;99.90;;;;;;5017160;28;19913;-79
2021/07/12 00:18:17;;;;;;;;;;;16.40;99.90;;;;;;5034591;28;19913;-78
2021/07/12 00:20:42;;;;;;;;;;;16.40;99.90;;;;;;5031949;28;19917;-76
2021/07/12 00:23:08;;;;;;;;;;;16.40;99.90;;;;;;5032837;28;19924;-77
2021/07/12 00:25:33;;;;;;;;;;;16.40;99.90;;;;;;5032417;28;20011;-77
2021/07/12 00:27:59;;;;;;;;;;;16.30;99.90;;;;;;5031782;28;19909;-84
2021/07/12 00:30:25;;;;;;;;;;;16.30;99.90;;;;;;5007797;28;19909;-77
2021/07/12 00:32:53;;;;;;;;;;;16.20;99.90;;;;;;5032830;28;20004;-77
2021/07/12 00:35:19;;;;;;;;;;;16.20;99.90;;;;;;5033006;28;19924;-77
2021/07/12 00:37:45;;;;;;;;;;;16.10;99.90;;;;;;5048155;28;19917;-77
2021/07/12 00:40:12;;;;;;;;;;;16.10;99.90;;;;;;5016796;28;19962;-77
2021/07/12 00:42:38;;;;;;;;;;;16.10;99.90;;;;;;5031824;28;19909;-77
2021/07/12 00:45:06;;;;;;;;;;;16.20;99.90;;;;;;5034094;28;19913;-84
2021/07/12 00:47:32;;;;;;;;;;;16.20;99.90;;;;;;5015228;28;20346;-84
2021/07/12 00:49:57;;;;;;;;;;;16.30;99.90;;;;;;5031844;28;19913;-76
2021/07/12 00:52:23;;;;;;;;;;;16.40;99.90;;;;;;5033131;28;19956;-80
2021/07/12 00:54:48;;;;;;;;;;;16.40;99.90;;;;;;5037153;28;19917;-77
2021/07/12 00:57:14;;;;;;;;;;;16.30;99.90;;;;;;5037653;28;19917;-77
2021/07/12 00:59:40;;;;;;;;;;;16.40;99.90;;;;;;5036782;28;19953;-76
2021/07/12 01:02:05;;;;;;;;;;;16.40;99.90;;;;;;5037727;28;19922;-77
2021/07/12 01:04:32;;;;;;;;;;;16.40;99.90;;;;;;5035580;28;19913;-78
2021/07/12 01:06:57;;;;;;;;;;;16.40;99.90;;;;;;5036571;28;19909;-76
2021/07/12 01:09:23;;;;;;;;;;;16.50;99.90;;;;;;5020312;28;19913;-77
2021/07/12 01:12:05;;;;;;;;;;;16.50;99.90;;;;;;5019954;28;19913;-77
2021/07/12 01:14:46;;;;;;;;;;;16.40;99.90;;;;;;5036831;28;20007;-76
2021/07/12 01:17:17;;;;;;;;;;;16.30;99.90;;;;;;5036860;28;19909;-77
2021/07/12 01:19:50;;;;;;;;;;;16.30;99.90;;;;;;5037060;28;19940;-76
2021/07/12 01:22:34;;;;;;;;;;;16.20;99.90;;;;;;5037667;28;19924;-77
2021/07/12 01:25:02;;;;;;;;;;;16.10;99.90;;;;;;5031862;28;19917;-81
2021/07/12 01:27:46;;;;;;;;;;;16.10;99.90;;;;;;5036202;28;19917;-77
2021/07/12 01:30:21;;;;;;;;;;;16.10;99.90;;;;;;5036800;28;19913;-77
2021/07/12 01:32:56;;;;;;;;;;;16.20;99.90;;;;;;5037044;28;19913;-82
2021/07/12 01:35:31;;;;;;;;;;;16.20;99.90;;;;;;5032952;28;19916;-77
2021/07/12 01:38:09;;;;;;;;;;;16.30;99.90;;;;;;5025603;28;19917;-76
2021/07/12 01:40:40;;;;;;;;;;;16.40;99.90;;;;;;5036221;28;19927;-77
2021/07/12 01:43:10;;;;;;;;;;;16.40;99.90;;;;;;5036094;28;19920;-77
2021/07/12 01:45:39;;;;;;;;;;;16.30;99.90;;;;;;5012671;28;19917;-76
2021/07/12 01:48:07;;;;;;;;;;;16.20;99.90;;;;;;5035927;28;19960;-77
2021/07/12 01:50:39;;;;;;;;;;;16.20;99.90;;;;;;5035447;28;19914;-77
2021/07/12 01:53:04;;;;;;;;;;;16.10;99.90;;;;;;5034725;28;19920;-82
2021/07/12 01:55:36;;;;;;;;;;;16.00;99.90;;;;;;5035609;28;19917;-76
2021/07/12 01:58:08;;;;;;;;;;;15.90;99.90;;;;;;5037354;28;19917;-84
2021/07/12 02:00:34;;;;;;;;;;;15.90;99.90;;;;;;5051703;28;19928;-77
2021/07/12 02:03:00;;;;;;;;;;;16.00;99.90;;;;;;5011222;28;20251;-78
2021/07/12 02:05:28;;;;;;;;;;;16.00;99.90;;;;;;5033472;28;19941;-77
2021/07/12 02:07:54;;;;;;;;;;;16.00;99.90;;;;;;5051970;28;19913;-76
2021/07/12 02:10:23;;;;;;;;;;;16.10;99.90;;;;;;5035535;28;19913;-76
2021/07/12 02:12:51;;;;;;;;;;;16.20;99.90;;;;;;5035837;28;19912;-76
2021/07/12 02:15:17;;;;;;;;;;;16.20;99.90;;;;;;5036651;28;19925;-76
2021/07/12 02:17:43;;;;;;;;;;;16.20;99.90;;;;;;5036026;28;20008;-75
2021/07/12 02:20:09;;;;;;;;;;;16.20;99.90;;;;;;5051917;28;19963;-77
2021/07/12 02:22:35;;;;;;;;;;;16.20;99.90;;;;;;5018361;28;20320;-76
2021/07/12 02:25:02;;;;;;;;;;;16.20;99.90;;;;;;5036262;28;20336;-76
2021/07/12 02:27:28;;;;;;;;;;;16.20;99.90;;;;;;5035374;28;19917;-75
2021/07/12 02:29:55;;;;;;;;;;;16.20;99.90;;;;;;5028343;28;20382;-76
2021/07/12 02:32:20;;;;;;;;;;;16.20;99.90;;;;;;5035755;28;19999;-77
2021/07/12 02:34:46;;;;;;;;;;;16.10;99.90;;;;;;5036255;28;20176;-83
2021/07/12 02:37:12;;;;;;;;;;;16.00;99.90;;;;;;5035562;28;19952;-77
2021/07/12 02:39:39;;;;;;;;;;;15.90;99.90;;;;;;5036332;28;19909;-77
2021/07/12 02:42:06;;;;;;;;;;;15.90;99.90;;;;;;5018180;28;19917;-77
2021/07/12 02:44:32;;;;;;;;;;;15.80;99.90;;;;;;5034034;28;20011;-77
2021/07/12 02:46:58;;;;;;;;;;;15.90;99.90;;;;;;5036032;28;19909;-76
2021/07/12 02:49:24;;;;;;;;;;;15.90;99.90;;;;;;5025139;28;20003;-77
2021/07/12 02:51:53;;;;;;;;;;;15.80;99.90;;;;;;5024748;28;20328;-76
2021/07/12 02:54:20;;;;;;;;;;;15.90;99.90;;;;;;5009331;28;19945;-79
2021/07/12 02:56:46;;;;;;;;;;;15.90;99.90;;;;;;5017739;28;19917;-75
2021/07/12 02:59:12;;;;;;;;;;;15.90;99.90;;;;;;5014347;28;20315;-79
2021/07/12 03:01:38;;;;;;;;;;;15.80;99.90;;;;;;5034123;28;20006;-76
2021/07/12 03:04:04;;;;;;;;;;;15.80;99.90;;;;;;5048942;28;20024;-77
2021/07/12 03:06:31;;;;;;;;;;;15.90;99.90;;;;;;5035101;28;19968;-77
2021/07/12 03:08:59;;;;;;;;;;;15.80;99.90;;;;;;5035670;28;20038;-76
2021/07/12 03:11:26;;;;;;;;;;;15.80;99.90;;;;;;5050208;28;20304;-75
2021/07/12 03:13:51;;;;;;;;;;;15.80;99.90;;;;;;5032962;28;19913;-75
2021/07/12 03:16:17;;;;;;;;;;;15.80;99.90;;;;;;5050481;28;20320;-78
2021/07/12 03:18:47;;;;;;;;;;;15.70;99.90;;;;;;5032550;28;20005;-77
2021/07/12 03:21:14;;;;;;;;;;;15.60;99.90;;;;;;5023267;28;19917;-82
2021/07/12 03:23:41;;;;;;;;;;;15.50;99.90;;;;;;5031859;28;19913;-77
2021/07/12 03:26:08;;;;;;;;;;;15.50;99.90;;;;;;5034834;28;19963;-76
2021/07/12 03:28:34;;;;;;;;;;;15.40;99.90;;;;;;5033693;28;19970;-77
2021/07/12 03:31:00;;;;;;;;;;;15.50;99.90;;;;;;5034697;28;19913;-77
2021/07/12 03:33:26;;;;;;;;;;;15.50;99.90;;;;;;5035224;28;19915;-76
2021/07/12 03:35:53;;;;;;;;;;;15.50;99.90;;;;;;5033767;28;19956;-77
2021/07/12 03:38:20;;;;;;;;;;;15.50;99.90;;;;;;5032729;28;20286;-76
2021/07/12 03:40:46;;;;;;;;;;;15.50;99.90;;;;;;5031777;28;19917;-77
2021/07/12 03:43:13;;;;;;;;;;;15.40;99.90;;;;;;5029781;28;20224;-77
2021/07/12 03:45:39;;;;;;;;;;;15.30;99.90;;;;;;5034753;28;20263;-77
2021/07/12 03:48:06;;;;;;;;;;;15.30;99.90;;;;;;5034165;28;19939;-76
2021/07/12 03:50:32;;;;;;;;;;;15.40;99.90;;;;;;5034587;28;19952;-77
2021/07/12 03:53:01;;;;;;;;;;;15.50;99.90;;;;;;5033457;28;19972;-82
2021/07/12 03:55:27;;;;;;;;;;;15.60;99.90;;;;;;5034121;28;19913;-77
2021/07/12 03:57:53;;;;;;;;;;;15.60;99.90;;;;;;5034042;28;19917;-77
2021/07/12 04:00:20;;;;;;;;;;;15.60;99.90;;;;;;5034629;28;19928;-76
2021/07/12 04:02:46;;;;;;;;;;;15.60;99.90;;;;;;5033997;28;19920;-77
2021/07/12 04:05:12;;;;;;;;;;;15.60;99.90;;;;;;5033959;28;19909;-77
2021/07/12 04:07:38;;;;;;;;;;;15.80;99.90;;;;;;5034681;28;19913;-76
2021/07/12 04:10:04;;;;;;;;;;;15.90;99.90;;;;;;5031715;28;20231;-79
2021/07/12 04:12:30;;;;;;;;;;;16.00;99.90;;;;;;5033220;28;19917;-76
2021/07/12 04:14:57;;;;;;;;;;;16.10;99.90;;;;;;5016018;28;19975;-76
2021/07/12 04:17:22;;;;;;;;;;;16.10;99.90;;;;;;5034752;28;19944;-81
2021/07/12 04:19:48;;;;;;;;;;;16.20;99.90;;;;;;5016747;28;19971;-77
2021/07/12 04:22:14;;;;;;;;;;;16.20;99.90;;;;;;5032647;28;19928;-78
2021/07/12 04:24:39;;;;;;;;;;;16.20;99.90;;;;;;5049545;28;19956;-77
2021/07/12 04:27:05;;;;;;;;;;;16.20;99.90;;;;;;5023509;28;19909;-76
2021/07/12 04:29:30;;;;;;;;;;;16.20;99.90;;;;;;5032947;28;19917;-79
2021/07/12 04:31:56;;;;;;;;;;;16.30;99.90;;;;;;5033040;28;19917;-82
2021/07/12 04:34:25;;;;;;;;;;;16.30;99.90;;;;;;5028600;28;19945;-76
2021/07/12 04:36:50;;;;;;;;;;;16.40;99.90;;;;;;5030250;28;19920;-77
2021/07/12 04:39:16;;;;;;;;;;;16.40;99.90;;;;;;5049283;28;19913;-77
2021/07/12 04:41:41;;;;;;;;;;;16.50;99.90;;;;;;5032701;28;19924;-76
2021/07/12 04:44:07;;;;;;;;;;;16.50;99.90;;;;;;5032176;28;20348;-80
2021/07/12 04:46:32;;;;;;;;;;;16.60;99.90;;;;;;5034345;28;19909;-75
2021/07/12 04:48:58;;;;;;;;;;;16.60;99.90;;;;;;5032692;28;19917;-78
2021/07/12 04:51:23;;;;;;;;;;;16.60;99.90;;;;;;5033334;28;19913;-76
2021/07/12 04:53:49;;;;;;;;;;;16.50;99.90;;;;;;5034026;28;20288;-77
2021/07/12 04:56:14;;;;;;;;;;;16.50;99.90;;;;;;5047855;28;20319;-76
2021/07/12 04:58:45;;;;;;;;;;;16.50;99.90;;;;;;5032538;28;19917;-77
2021/07/12 05:01:11;;;;;;;;;;;16.70;99.90;;;;;;5016038;28;19929;-76
2021/07/12 05:03:37;;;;;;;;;;;16.70;99.90;;;;;;5016073;28;19931;-78
2021/07/12 05:06:03;;;;;;;;;;;16.80;99.90;;;;;;5033476;28;20363;-79
2021/07/12 05:08:28;;;;;;;;;;;16.80;99.90;;;;;;5042801;28;20313;-77
2021/07/12 05:10:54;;;;;;;;;;;16.90;99.90;;;;;;5042554;28;19929;-77
2021/07/12 05:13:19;;;;;;;;;;;16.90;99.90;;;;;;5030525;28;19913;-78
2021/07/12 05:15:45;;;;;;;;;;;16.90;99.90;;;;;;5049566;28;19913;-75
2021/07/12 05:18:11;;;;;;;;;;;17.00;99.90;;;;;;5015495;28;19920;-76
2021/07/12 05:20:36;;;;;;;;;;;17.00;99.90;;;;;;5024403;28;19929;-76
2021/07/12 05:23:02;;;;;;;;;;;17.10;99.90;;;;;;5028089;28;19960;-78
2021/07/12 05:25:27;;;;;;;;;;;17.20;99.90;;;;;;5016304;28;19955;-77
2021/07/12 05:27:53;;;;;;;;;;;17.20;99.90;;;;;;5033609;28;20316;-78
2021/07/12 05:30:19;;;;;;;;;;;17.30;99.90;;;;;;5013920;28;20292;-77
2021/07/12 05:32:44;;;;;;;;;;;17.40;99.90;;;;;;5032488;28;19920;-76
2021/07/12 05:35:10;;;;;;;;;;;17.40;99.90;;;;;;5032225;28;19928;-76
2021/07/12 05:37:37;;;;;;;;;;;17.50;99.90;;;;;;5030559;28;19975;-77
2021/07/12 05:40:08;;;;;;;;;;;17.50;99.90;;;;;;5034858;28;19929;-76
2021/07/12 05:42:35;;;;;;;;;;;17.50;99.90;;;;;;5035833;28;20301;-78
2021/07/12 05:45:01;;;;;;;;;;;17.60;99.90;;;;;;5035739;28;19970;-78
2021/07/12 05:47:27;;;;;;;;;;;17.60;99.90;;;;;;5035789;28;20254;-77
2021/07/12 05:49:52;;;;;;;;;;;17.70;99.90;;;;;;5034360;28;20012;-77
2021/07/12 05:52:18;;;;;;;;;;;17.70;99.90;;;;;;5035133;28;19917;-79
2021/07/12 05:54:44;;;;;;;;;;;17.80;99.90;;;;;;5036161;28;20035;-77
2021/07/12 05:57:09;;;;;;;;;;;17.90;99.90;;;;;;5050818;28;19924;-77
2021/07/12 05:59:36;;;;;;;;;;;17.90;99.90;;;;;;5033054;28;19932;-76
2021/07/12 06:02:02;;;;;;;;;;;18.10;99.90;;;;;;5051100;28;19924;-78
2021/07/12 06:04:28;;;;;;;;;;;18.10;99.90;;;;;;5023494;28;20351;-76
2021/07/12 06:06:54;;;;;;;;;;;18.20;99.90;;;;;;5036375;28;19917;-77
2021/07/12 06:09:19;;;;;;;;;;;18.40;99.90;;;;;;5036248;28;19913;-79
2021/07/12 06:11:45;;;;;;;;;;;18.50;99.90;;;;;;5035025;28;19921;-77
2021/07/12 06:14:10;;;;;;;;;;;18.50;99.90;;;;;;5036506;28;19918;-78
2021/07/12 06:16:36;;;;;;;;;;;18.60;99.90;;;;;;5034875;28;19917;-78
2021/07/12 06:19:02;;;;;;;;;;;18.70;99.90;;;;;;5035555;28;20382;-77
2021/07/12 06:21:27;;;;;;;;;;;18.80;99.90;;;;;;5034037;28;19951;-77
2021/07/12 06:23:53;;;;;;;;;;;18.80;99.90;;;;;;5032909;28;19917;-77
2021/07/12 06:26:19;;;;;;;;;;;18.90;99.90;;;;;;5031256;28;19913;-79
2021/07/12 06:28:44;;;;;;;;;;;18.90;99.90;;;;;;5031683;28;20059;-78
2021/07/12 06:31:10;;;;;;;;;;;18.90;99.90;;;;;;5034636;28;19920;-83
2021/07/12 06:33:35;;;;;;;;;;;18.90;99.90;;;;;;5034443;28;19913;-78
2021/07/12 06:36:01;;;;;;;;;;;18.90;99.90;;;;;;5016882;28;19936;-79
2021/07/12 06:38:26;;;;;;;;;;;18.90;99.90;;;;;;5014960;28;19920;-78
2021/07/12 06:40:52;;;;;;;;;;;19.00;99.90;;;;;;5023867;28;20618;-77
2021/07/12 06:43:18;;;;;;;;;;;19.00;99.90;;;;;;5034927;28;20205;-78
2021/07/12 06:45:44;;;;;;;;;;;19.10;99.90;;;;;;5033410;28;19968;-79
2021/07/12 06:48:09;;;;;;;;;;;19.10;99.90;;;;;;5049150;28;20300;-78
2021/07/12 06:50:35;;;;;;;;;;;19.30;99.90;;;;;;5031219;28;19913;-79
2021/07/12 06:53:01;;;;;;;;;;;19.30;99.90;;;;;;5034276;28;19917;-82
2021/07/12 06:55:27;;;;;;;;;;;19.40;99.90;;;;;;5035162;28;19924;-80
2021/07/12 06:57:53;;;;;;;;;;;19.50;99.90;;;;;;5028301;28;19976;-77
2021/07/12 07:00:19;;;;;;;;;;;19.60;99.90;;;;;;5013683;28;20309;-82
2021/07/12 07:02:44;;;;;;;;;;;19.70;99.90;;;;;;5012472;28;20325;-82
2021/07/12 07:05:10;;;;;;;;;;;19.80;99.90;;;;;;5029773;28;19920;-79
2021/07/12 07:07:36;;;;;;;;;;;19.90;99.90;;;;;;5030626;28;19917;-77
2021/07/12 07:10:05;;;;;;;;;;;19.90;99.90;;;;;;5013117;28;20332;-78
2021/07/12 07:12:31;;;;;;;;;;;20.00;99.90;;;;;;5028505;28;19914;-78
2021/07/12 07:14:56;;;;;;;;;;;20.10;99.90;;;;;;5030236;28;19917;-78
2021/07/12 07:17:22;;;;;;;;;;;20.20;99.90;;;;;;5030363;28;19976;-78
2021/07/12 07:19:47;;;;;;;;;;;20.30;99.90;;;;;;5014508;28;19913;-78
2021/07/12 07:22:13;;;;;;;;;;;20.40;99.90;;;;;;5012437;28;19932;-78
2021/07/12 07:24:39;;;;;;;;;;;20.50;99.90;;;;;;5028306;28;20327;-79
2021/07/12 07:27:04;;;;;;;;;;;20.60;99.90;;;;;;5012687;28;20311;-78
2021/07/12 07:29:30;;;;;;;;;;;20.70;99.90;;;;;;5028973;28;19914;-78
2021/07/12 07:31:56;;;;;;;;;;;20.80;99.90;;;;;;5012723;28;19925;-78
2021/07/12 07:34:21;;;;;;;;;;;20.80;99.90;;;;;;5018716;28;19917;-78
2021/07/12 07:36:47;;;;;;;;;;;21.00;99.90;;;;;;5027397;28;19928;-79
2021/07/12 07:39:12;;;;;;;;;;;21.10;99.90;;;;;;5026775;28;20247;-81
2021/07/12 07:41:38;;;;;;;;;;;21.20;99.90;;;;;;5027838;28;19921;-79
2021/07/12 07:44:04;;;;;;;;;;;21.30;99.90;;;;;;5011351;28;20320;-78
2021/07/12 07:46:31;;;;;;;;;;;21.40;99.90;;;;;;5012528;28;19914;-79
2021/07/12 07:48:56;;;;;;;;;;;21.30;99.90;;;;;;5029788;28;21129;-81
2021/07/12 07:51:22;;;;;;;;;;;21.30;99.90;;;;;;5004950;28;19964;-78
2021/07/12 07:53:47;;;;;;;;;;;21.40;99.90;;;;;;5012666;28;19976;-78
2021/07/12 07:56:13;;;;;;;;;;;21.50;99.90;;;;;;5029092;28;19920;-78
2021/07/12 07:58:38;;;;;;;;;;;21.60;99.90;;;;;;5015293;28;20240;-81
2021/07/12 08:01:04;;;;;;;;;;;21.60;99.90;;;;;;5016384;28;19921;-77
2021/07/12 08:03:30;;;;;;;;;;;21.60;99.90;;;;;;5014272;28;19917;-78
2021/07/12 08:05:55;;;;;;;;;;;21.70;99.90;;;;;;5029309;28;19924;-78
2021/07/12 08:08:21;;;;;;;;;;;21.70;99.90;;;;;;5043897;28;19939;-82
2021/07/12 08:10:46;;;;;;;;;;;21.80;99.90;;;;;;5014033;28;19923;-78
2021/07/12 08:13:13;;;;;;;;;;;21.90;99.90;;;;;;5010082;28;20004;-78
2021/07/12 08:15:39;;;;;;;;;;;21.90;99.90;;;;;;5028804;28;19922;-78
2021/07/12 08:18:05;;;;;;;;;;;22.10;99.90;;;;;;5027332;28;19914;-81
2021/07/12 08:20:30;;;;;;;;;;;22.20;99.90;;;;;;5010689;28;19991;-78
2021/07/12 08:22:56;;;;;;;;;;;22.20;99.90;;;;;;5001982;28;19928;-79
2021/07/12 08:25:22;;;;;;;;;;;22.30;99.90;;;;;;5006114;28;19964;-81
2021/07/12 08:27:48;;;;;;;;;;;22.30;99.90;;;;;;5007058;28;19926;-79
2021/07/12 08:30:15;;;;;;;;;;;22.40;99.90;;;;;;5024330;28;20027;-80
2021/07/12 08:32:42;;;;;;;;;;;22.40;99.90;;;;;;5005384;28;19929;-81
2021/07/12 08:35:08;;;;;;;;;;;22.40;99.90;;;;;;5012318;28;19925;-79
2021/07/12 08:37:34;;;;;;;;;;;22.30;99.90;;;;;;5009965;28;19933;-77
2021/07/12 08:39:59;;;;;;;;;;;22.50;99.90;;;;;;5020318;28;19922;-79
2021/07/12 08:42:25;;;;;;;;;;;22.60;99.90;;;;;;5011735;28;19917;-81
2021/07/12 08:44:51;;;;;;;;;;;22.70;99.90;;;;;;5013485;28;19913;-82
2021/07/12 08:47:16;;;;;;;;;;;22.80;99.90;;;;;;5013654;28;20214;-79
2021/07/12 08:49:42;;;;;;;;;;;22.90;99.90;;;;;;5012902;28;19925;-78
2021/07/12 08:52:07;;;;;;;;;;;23.10;99.90;;;;;;5013284;28;20005;-78
2021/07/12 08:54:33;;;;;;;;;;;23.10;99.90;;;;;;5013101;28;19965;-81
2021/07/12 08:56:59;;;;;;;;;;;23.20;99.90;;;;;;5023747;28;19921;-78
2021/07/12 08:59:36;;;;;;;;;;;23.30;99.90;;;;;;5031555;28;19980;-81
2021/07/12 09:02:04;;;;;;;;;;;23.40;99.90;;;;;;5031774;28;19929;-81
2021/07/12 09:04:30;;;;;;;;;;;23.60;99.90;;;;;;5033441;28;19913;-81
2021/07/12 09:07:00;;;;;;;;;;;23.70;99.90;;;;;;5033770;28;20207;-82
2021/07/12 09:09:26;;;;;;;;;;;23.60;99.90;;;;;;5032114;28;19921;-81
2021/07/12 09:11:51;;;;;;;;;;;23.60;99.90;;;;;;5033128;28;19921;-79
2021/07/12 09:14:18;;;;;;;;;;;23.70;99.90;;;;;;5033323;28;19931;-82
2021/07/12 09:16:44;;;;;;;;;;;23.80;99.90;;;;;;5036314;28;19967;-82
2021/07/12 09:19:25;;;;;;;;;;;24.00;99.90;;;;;;5034768;28;19913;-82
2021/07/12 09:21:58;;;;;;;;;;;24.00;99.90;;;;;;5021867;28;20232;-81
2021/07/12 09:24:25;;;;;;;;;;;24.00;99.90;;;;;;5037083;28;20063;-79
2021/07/12 09:26:52;;;;;;;;;;;23.80;99.90;;;;;;5018117;28;19925;-78
2021/07/12 09:29:19;;;;;;;;;;;23.60;99.90;;;;;;5032706;28;20305;-79
2021/07/12 09:31:45;;;;;;;;;;;23.70;99.90;;;;;;5035376;28;19941;-79
2021/07/12 09:34:10;;;;;;;;;;;23.90;99.90;;;;;;5034899;28;19913;-81
2021/07/12 09:36:36;;;;;;;;;;;24.10;99.90;;;;;;5025162;28;19909;-79
2021/07/12 09:39:22;;;;;;;;;;;24.10;99.90;;;;;;5035545;28;19928;-81
2021/07/12 09:41:58;;;;;;;;;;;24.00;99.90;;;;;;5020160;28;20371;-82
2021/07/12 09:44:25;;;;;;;;;;;24.00;99.90;;;;;;5037012;28;19924;-82
2021/07/12 09:46:51;;;;;;;;;;;24.30;99.90;;;;;;5038353;28;19916;-78
2021/07/12 09:49:18;;;;;;;;;;;24.50;99.90;;;;;;5043181;28;19913;-79
2021/07/12 09:51:43;;;;;;;;;;;24.50;99.90;;;;;;5038467;28;19917;-81
2021/07/12 09:54:15;;;;;;;;;;;24.30;99.90;;;;;;5029221;28;20351;-79
2021/07/12 09:56:40;;;;;;;;;;;24.00;99.90;;;;;;5034659;28;19917;-82
2021/07/12 09:59:06;;;;;;;;;;;23.90;99.90;;;;;;5033997;28;19913;-81
2021/07/12 10:01:32;;;;;;;;;;;23.90;99.90;;;;;;5028579;28;19960;-82
2021/07/12 10:03:59;;;;;;;;;;;24.10;99.90;;;;;;5035969;28;19917;-79
2021/07/12 10:06:24;;;;;;;;;;;24.00;99.90;;;;;;5031369;28;19909;-81
2021/07/12 10:08:52;;;;;;;;;;;23.90;99.90;;;;;;5031282;28;19936;-82
2021/07/12 10:11:17;;;;;;;;;;;23.90;99.90;;;;;;5035962;28;20007;-83
2021/07/12 10:13:43;;;;;;;;;;;24.10;99.90;;;;;;5035880;28;20012;-82
2021/07/12 10:16:08;;;;;;;;;;;24.20;99.90;;;;;;5020737;28;19928;-79
2021/07/12 10:18:34;;;;;;;;;;;24.00;99.90;;;;;;5036580;28;20260;-82
2021/07/12 10:21:00;;;;;;;;;;;24.00;99.90;;;;;;5032113;28;20055;-80
2021/07/12 10:23:25;;;;;;;;;;;24.00;99.90;;;;;;5036431;28;19917;-78
2021/07/12 10:25:53;;;;;;;;;;;23.90;99.90;;;;;;5048492;28;19960;-83
2021/07/12 10:28:36;;;;;;;;;;;23.80;99.90;;;;;;5015451;28;19917;-80
2021/07/12 10:31:15;;;;;;;;;;;23.80;99.90;;;;;;5034467;28;19920;-79
2021/07/12 10:33:40;;;;;;;;;;;23.80;99.90;;;;;;5049364;28;20224;-79
2021/07/12 10:36:07;;;;;;;;;;;23.70;99.90;;;;;;5025337;28;19913;-81
2021/07/12 10:38:43;;;;;;;;;;;23.70;99.90;;;;;;5033443;28;19913;-79
2021/07/12 10:41:18;;;;;;;;;;;23.70;99.90;;;;;;5032179;28;19921;-82
2021/07/12 10:43:53;;;;;;;;;;;23.70;99.90;;;;;;5035077;28;19913;-80
2021/07/12 10:46:18;;;;;;;;;;;23.70;99.90;;;;;;5034863;28;19921;-82
2021/07/12 10:48:44;;;;;;;;;;;23.70;99.90;;;;;;5047617;28;20339;-82
2021/07/12 10:51:20;;;;;;;;;;;23.70;99.90;;;;;;5023947;28;19924;-82
2021/07/12 10:53:55;;;;;;;;;;;23.70;99.90;;;;;;5033578;28;20220;-83
2021/07/12 10:56:21;;;;;;;;;;;23.80;99.90;;;;;;5034181;28;20268;-82
2021/07/12 10:58:47;;;;;;;;;;;24.00;99.90;;;;;;5033344;28;19913;-82
2021/07/12 11:01:17;;;;;;;;;;;24.10;99.90;;;;;;5035377;28;19928;-80
2021/07/12 11:03:43;;;;;;;;;;;24.10;99.90;;;;;;5032718;28;19924;-82
2021/07/12 11:06:20;;;;;;;;;;;24.10;99.90;;;;;;5035736;28;20220;-83
2021/07/12 11:08:56;;;;;;;;;;;24.00;99.90;;;;;;5023519;28;19920;-82
2021/07/12 11:11:22;;;;;;;;;;;23.80;99.90;;;;;;5031616;28;20011;-77
2021/07/12 11:13:47;;;;;;;;;;;23.70;99.90;;;;;;5035464;28;20027;-79
2021/07/12 11:16:15;;;;;;;;;;;23.70;99.90;;;;;;5050550;28;19914;-79
2021/07/12 11:18:41;;;;;;;;;;;23.90;99.90;;;;;;5033922;28;19917;-79
2021/07/12 11:21:09;;;;;;;;;;;24.00;99.90;;;;;;5033178;28;20323;-81
2021/07/12 11:23:42;;;;;;;;;;;24.10;99.90;;;;;;5031156;28;20016;-83
2021/07/12 11:26:33;;;;;;;;;;;24.00;99.90;;;;;;5049678;28;20292;-80
2021/07/12 11:28:59;;;;;;;;;;;24.00;99.90;;;;;;5033814;28;19917;-83
2021/07/12 11:31:40;;;;;;;;;;;24.00;99.90;;;;;;5016402;28;19913;-82
2021/07/12 11:34:06;;;;;;;;;;;24.00;99.90;;;;;;5016757;28;20004;-80
2021/07/12 11:36:32;;;;;;;;;;;23.90;99.90;;;;;;5032838;28;19913;-79
2021/07/12 11:38:57;;;;;;;;;;;23.90;99.90;;;;;;5047940;28;20032;-82
2021/07/12 11:41:23;;;;;;;;;;;23.90;99.90;;;;;;5032711;28;19975;-81
2021/07/12 11:44:12;;;;;;;;;;;23.80;99.90;;;;;;5030381;28;19955;-82
2021/07/12 11:46:37;;;;;;;;;;;23.80;99.90;;;;;;5030678;28;19916;-81
2021/07/12 11:49:04;;;;;;;;;;;23.80;99.90;;;;;;5047910;28;19913;-78
2021/07/12 11:51:30;;;;;;;;;;;23.70;99.90;;;;;;5033566;28;19936;-82
2021/07/12 11:53:55;;;;;;;;;;;23.70;99.90;;;;;;5034602;28;20353;-79
2021/07/12 11:56:21;;;;;;;;;;;23.60;99.90;;;;;;5032564;28;19928;-81
2021/07/12 11:58:54;;;;;;;;;;;23.40;99.90;;;;;;5049276;28;20339;-81
2021/07/12 12:01:20;;;;;;;;;;;23.20;99.90;;;;;;5031955;28;19975;-79
2021/07/12 12:03:45;;;;;;;;;;;23.00;99.90;;;;;;5034236;28;19921;-78
2021/07/12 12:06:11;;;;;;;;;;;22.80;99.90;;;;;;5032076;28;20322;-79
2021/07/12 12:08:36;;;;;;;;;;;22.70;99.90;;;;;;5049367;28;19909;-79
2021/07/12 12:11:02;;;;;;;;;;;22.50;99.90;;;;;;5033555;28;19909;-81
2021/07/12 12:13:29;;;;;;;;;;;22.50;99.90;;;;;;5013860;28;19925;-79
2021/07/12 12:15:54;;;;;;;;;;;22.40;99.90;;;;;;5025678;28;20003;-77
2021/07/12 12:18:21;;;;;;;;;;;22.50;99.90;;;;;;5031505;28;20017;-83
2021/07/12 12:20:47;;;;;;;;;;;22.50;99.90;;;;;;5032293;28;19917;-82
2021/07/12 12:23:12;;;;;;;;;;;22.50;99.90;;;;;;5030501;28;19920;-77
2021/07/12 12:25:49;;;;;;;;;;;22.60;99.90;;;;;;5033352;28;19974;-78
2021/07/12 12:28:24;;;;;;;;;;;22.60;99.90;;;;;;5031264;28;19921;-81
2021/07/12 12:30:49;;;;;;;;;;;22.70;99.90;;;;;;5031746;28;19913;-79
2021/07/12 12:33:15;;;;;;;;;;;22.70;99.90;;;;;;5032719;28;19913;-82
2021/07/12 12:35:41;;;;;;;;;;;22.80;99.90;;;;;;5032261;28;19922;-78
2021/07/12 12:38:14;;;;;;;;;;;22.90;99.90;;;;;;5032014;28;19925;-82
2021/07/12 12:40:40;;;;;;;;;;;23.00;99.90;;;;;;5032133;28;19984;-79
2021/07/12 12:43:24;;;;;;;;;;;23.00;99.90;;;;;;5031612;28;20008;-79
2021/07/12 12:45:50;;;;;;;;;;;23.00;99.90;;;;;;5030575;28;19987;-82
2021/07/12 12:48:30;;;;;;;;;;;23.00;99.90;;;;;;5030534;28;19967;-77
2021/07/12 12:50:55;;;;;;;;;;;22.90;99.90;;;;;;5018566;28;19913;-78
2021/07/12 12:53:29;;;;;;;;;;;22.90;99.90;;;;;;5017001;28;20274;-78
2021/07/12 12:55:54;;;;;;;;;;;22.90;99.90;;;;;;5033419;28;19960;-77
2021/07/12 12:58:25;;;;;;;;;;;23.00;99.90;;;;;;5033472;28;19948;-77
2021/07/12 13:00:50;;;;;;;;;;;23.00;99.90;;;;;;5034057;28;19913;-78
2021/07/12 13:03:17;;;;;;;;;;;23.10;99.90;;;;;;5034747;28;19913;-78
2021/07/12 13:05:43;;;;;;;;;;;23.20;99.90;;;;;;5018114;28;20305;-81
2021/07/12 13:08:08;;;;;;;;;;;23.30;99.90;;;;;;5030394;28;19920;-82
2021/07/12 13:10:34;;;;;;;;;;;23.30;99.90;;;;;;5037520;28;19917;-78
2021/07/12 13:13:03;;;;;;;;;;;23.30;99.90;;;;;;5010602;28;20204;-82
2021/07/12 13:15:30;;;;;;;;;;;23.20;99.90;;;;;;5040276;28;19921;-79
2021/07/12 13:18:00;;;;;;;;;;;23.20;99.90;;;;;;5033347;28;19913;-80
2021/07/12 13:20:27;;;;;;;;;;;23.20;99.90;;;;;;5019954;28;19909;-79
2021/07/12 13:22:56;;;;;;;;;;;23.10;99.90;;;;;;5037435;28;20216;-79
2021/07/12 13:25:26;;;;;;;;;;;23.00;99.90;;;;;;5019777;28;19920;-80
2021/07/12 13:27:53;;;;;;;;;;;23.00;99.90;;;;;;5037218;28;20244;-78
2021/07/12 13:30:19;;;;;;;;;;;23.00;99.90;;;;;;5052413;28;19920;-79
2021/07/12 13:32:48;;;;;;;;;;;22.90;99.90;;;;;;5044203;28;19913;-78
2021/07/12 13:35:18;;;;;;;;;;;22.90;99.90;;;;;;5043063;28;19913;-81
2021/07/12 13:37:46;;;;;;;;;;;22.90;99.90;;;;;;5037535;28;20002;-82
2021/07/12 13:40:12;;;;;;;;;;;22.80;99.90;;;;;;5038176;28;20308;-78
2021/07/12 13:42:38;;;;;;;;;;;22.80;99.90;;;;;;5019249;28;20315;-77
2021/07/12 13:45:04;;;;;;;;;;;22.80;99.90;;;;;;5019406;28;19913;-82
2021/07/12 13:47:30;;;;;;;;;;;22.70;99.90;;;;;;5021796;28;20003;-84
2021/07/12 13:49:55;;;;;;;;;;;22.70;99.90;;;;;;5018105;28;19921;-78
2021/07/12 13:52:21;;;;;;;;;;;22.70;99.90;;;;;;5015984;28;20213;-79
2021/07/12 13:54:47;;;;;;;;;;;22.70;99.90;;;;;;5033777;28;19920;-80
2021/07/12 13:57:12;;;;;;;;;;;22.70;99.90;;;;;;5032845;28;19931;-82
2021/07/12 13:59:41;;;;;;;;;;;22.80;99.90;;;;;;5032329;28;19917;-77
2021/07/12 14:02:08;;;;;;;;;;;22.80;99.90;;;;;;5015566;28;20213;-77
2021/07/12 14:04:33;;;;;;;;;;;22.90;99.90;;;;;;5031858;28;19940;-78
2021/07/12 14:06:59;;;;;;;;;;;22.90;99.90;;;;;;5048078;28;19920;-79
2021/07/12 14:09:24;;;;;;;;;;;23.00;99.90;;;;;;5033592;28;19913;-79
2021/07/12 14:11:50;;;;;;;;;;;23.10;99.90;;;;;;5033542;28;19917;-81
2021/07/12 14:14:15;;;;;;;;;;;23.20;99.90;;;;;;5033366;28;19913;-77
2021/07/12 14:16:41;;;;;;;;;;;23.30;99.90;;;;;;5051353;28;19914;-77